createdAt,value
2017-09-15T00:00:34.646Z,15.03
2017-09-15T00:01:15.207Z,15.09
2017-09-15T00:01:55.760Z,15.06
2017-09-15T00:02:36.307Z,15.06
2017-09-15T00:03:16.881Z,15.07
2017-09-15T00:03:57.436Z,15.03
2017-09-15T00:04:38.006Z,14.99
2017-09-15T00:05:18.581Z,15.14
2017-09-15T00:05:59.147Z,15.17
2017-09-15T00:06:40.412Z,15.16
2017-09-15T00:07:20.990Z,15.23
2017-09-15T00:08:01.567Z,15.25
2017-09-15T00:08:42.167Z,15.17
2017-09-15T00:09:22.738Z,15.21
2017-09-15T00:10:03.315Z,15.14
2017-09-15T00:10:43.864Z,15.19
2017-09-15T00:11:24.449Z,15.13
2017-09-15T00:12:05.005Z,15.16
2017-09-15T00:12:45.570Z,15.21
2017-09-15T00:13:26.137Z,15.23
2017-09-15T00:14:06.706Z,15.28
2017-09-15T00:14:47.266Z,15.21
2017-09-15T00:15:27.822Z,15.19
2017-09-15T00:16:08.373Z,15.19
2017-09-15T00:16:48.922Z,15.2
2017-09-15T00:17:29.500Z,15.36
2017-09-15T00:18:10.782Z,15.35
2017-09-15T00:18:51.368Z,15.35
2017-09-15T00:19:31.937Z,15.38
2017-09-15T00:20:12.496Z,15.43
2017-09-15T00:20:53.088Z,15.31
2017-09-15T00:21:33.676Z,15.36
2017-09-15T00:22:14.227Z,15.31
2017-09-15T00:22:54.776Z,15.19
2017-09-15T00:23:35.333Z,15.31
2017-09-15T00:24:15.886Z,15.34
2017-09-15T00:24:56.437Z,15.39
2017-09-15T00:25:36.992Z,15.35
2017-09-15T00:26:17.546Z,15.34
2017-09-15T00:26:58.120Z,15.36
2017-09-15T00:27:38.690Z,15.46
2017-09-15T00:28:19.282Z,15.38
2017-09-15T00:28:59.872Z,15.44
2017-09-15T00:29:40.486Z,15.44
2017-09-15T00:30:21.051Z,15.41
2017-09-15T00:31:01.602Z,15.36
2017-09-15T00:31:42.182Z,15.39
2017-09-15T00:32:22.750Z,15.36
2017-09-15T00:33:03.323Z,15.43
2017-09-15T00:33:43.882Z,15.41
2017-09-15T00:34:24.438Z,15.36
2017-09-15T00:35:04.998Z,15.38
2017-09-15T00:35:45.575Z,15.29
2017-09-15T00:36:26.134Z,15.23
2017-09-15T00:37:06.705Z,15.29
2017-09-15T00:37:47.272Z,15.31
2017-09-15T00:38:27.841Z,15.34
2017-09-15T00:39:08.404Z,15.32
2017-09-15T00:39:48.960Z,15.25
2017-09-15T00:40:29.554Z,15.25
2017-09-15T00:41:10.117Z,15.21
2017-09-15T00:41:50.683Z,15.34
2017-09-15T00:42:31.253Z,15.28
2017-09-15T00:43:11.827Z,15.35
2017-09-15T00:43:52.399Z,15.43
2017-09-15T00:44:32.958Z,15.34
2017-09-15T00:45:13.515Z,15.34
2017-09-15T00:45:54.080Z,15.35
2017-09-15T00:46:34.644Z,15.39
2017-09-15T00:47:15.213Z,15.43
2017-09-15T00:47:55.785Z,15.43
2017-09-15T00:48:36.349Z,15.46
2017-09-15T00:49:16.920Z,15.35
2017-09-15T00:49:57.485Z,15.29
2017-09-15T00:50:38.044Z,15.25
2017-09-15T00:51:18.620Z,15.25
2017-09-15T00:51:59.183Z,15.23
2017-09-15T00:52:39.763Z,15.23
2017-09-15T00:53:20.330Z,15.28
2017-09-15T00:54:00.903Z,15.21
2017-09-15T00:54:41.467Z,15.13
2017-09-15T00:55:22.040Z,15.14
2017-09-15T00:56:02.598Z,15.06
2017-09-15T00:56:43.154Z,15.03
2017-09-15T00:57:23.721Z,15.09
2017-09-15T00:58:04.294Z,15.1
2017-09-15T00:58:44.857Z,15.06
2017-09-15T00:59:25.418Z,15.11
2017-09-15T01:00:06.000Z,15.03
2017-09-15T01:00:46.570Z,15.01
2017-09-15T01:01:27.137Z,14.98
2017-09-15T01:02:07.705Z,14.95
2017-09-15T01:02:48.263Z,15.03
2017-09-15T01:03:28.809Z,15.14
2017-09-15T01:04:09.368Z,15.09
2017-09-15T01:04:49.934Z,15.09
2017-09-15T01:05:30.498Z,15.1
2017-09-15T01:06:11.060Z,15.06
2017-09-15T01:06:51.623Z,15.06
2017-09-15T01:07:32.189Z,15.1
2017-09-15T01:08:12.757Z,15.09
2017-09-15T01:08:53.327Z,15.09
2017-09-15T01:09:33.896Z,15.06
2017-09-15T01:10:14.474Z,14.98
2017-09-15T01:10:55.040Z,14.99
2017-09-15T01:11:35.614Z,15.02
2017-09-15T01:12:16.184Z,15.06
2017-09-15T01:12:56.738Z,15.09
2017-09-15T01:13:37.313Z,15.06
2017-09-15T01:14:17.863Z,15.03
2017-09-15T01:14:58.428Z,14.99
2017-09-15T01:15:38.988Z,15.03
2017-09-15T01:16:19.547Z,15.06
2017-09-15T01:17:00.110Z,15.02
2017-09-15T01:17:40.678Z,15.03
2017-09-15T01:18:21.267Z,15.02
2017-09-15T01:19:01.827Z,15.01
2017-09-15T01:19:42.385Z,15.02
2017-09-15T01:20:22.960Z,15.06
2017-09-15T01:21:03.515Z,14.96
2017-09-15T01:21:44.068Z,15.06
2017-09-15T01:22:24.645Z,15.01
2017-09-15T01:23:05.201Z,15.02
2017-09-15T01:23:45.756Z,15.01
2017-09-15T01:24:26.347Z,15.1
2017-09-15T01:25:06.908Z,14.98
2017-09-15T01:25:47.481Z,15.06
2017-09-15T01:26:28.041Z,15.03
2017-09-15T01:27:08.607Z,14.94
2017-09-15T01:27:49.152Z,14.94
2017-09-15T01:28:29.717Z,14.89
2017-09-15T01:29:10.280Z,15.03
2017-09-15T01:29:50.843Z,15.06
2017-09-15T01:30:31.418Z,15.09
2017-09-15T01:31:11.988Z,15.07
2017-09-15T01:31:52.543Z,15.09
2017-09-15T01:32:33.115Z,15.09
2017-09-15T01:33:13.696Z,15.07
2017-09-15T01:33:54.263Z,15.11
2017-09-15T01:34:34.825Z,15.17
2017-09-15T01:35:15.375Z,15.11
2017-09-15T01:35:55.932Z,15.09
2017-09-15T01:36:36.489Z,15.13
2017-09-15T01:37:17.053Z,15.09
2017-09-15T01:37:57.617Z,14.99
2017-09-15T01:38:38.182Z,15.07
2017-09-15T01:39:18.755Z,15.13
2017-09-15T01:39:59.330Z,15.07
2017-09-15T01:40:39.880Z,15.09
2017-09-15T01:41:20.458Z,15.03
2017-09-15T01:42:01.024Z,15.07
2017-09-15T01:42:41.593Z,15.06
2017-09-15T01:43:22.162Z,15.02
2017-09-15T01:44:02.730Z,14.91
2017-09-15T01:44:43.285Z,14.88
2017-09-15T01:45:23.860Z,14.92
2017-09-15T01:46:04.423Z,14.91
2017-09-15T01:46:44.979Z,14.99
2017-09-15T01:47:25.542Z,14.96
2017-09-15T01:48:06.119Z,15.07
2017-09-15T01:48:46.675Z,15.03
2017-09-15T01:49:27.242Z,14.96
2017-09-15T01:50:07.797Z,15.06
2017-09-15T01:50:48.369Z,15.01
2017-09-15T01:51:28.934Z,15.02
2017-09-15T01:52:09.495Z,15.03
2017-09-15T01:52:50.059Z,15.01
2017-09-15T01:53:30.633Z,15.02
2017-09-15T01:54:11.197Z,14.99
2017-09-15T01:54:51.755Z,14.89
2017-09-15T01:55:32.321Z,14.89
2017-09-15T01:56:12.889Z,14.92
2017-09-15T01:56:53.449Z,15.02
2017-09-15T01:57:34.034Z,14.91
2017-09-15T01:58:14.583Z,14.86
2017-09-15T01:58:55.146Z,14.91
2017-09-15T01:59:35.708Z,14.86
2017-09-15T02:00:16.277Z,15.06
2017-09-15T02:00:56.847Z,14.88
2017-09-15T02:01:37.408Z,14.91
2017-09-15T02:02:17.965Z,14.83
2017-09-15T02:02:58.532Z,14.86
2017-09-15T02:03:39.104Z,14.83
2017-09-15T02:04:19.660Z,14.86
2017-09-15T02:05:00.220Z,14.89
2017-09-15T02:05:40.781Z,14.89
2017-09-15T02:06:21.363Z,14.89
2017-09-15T02:07:01.922Z,14.99
2017-09-15T02:07:42.485Z,15.03
2017-09-15T02:08:23.050Z,14.94
2017-09-15T02:09:03.604Z,14.83
2017-09-15T02:09:44.156Z,14.84
2017-09-15T02:10:24.719Z,14.96
2017-09-15T02:11:05.291Z,14.99
2017-09-15T02:11:45.856Z,15.02
2017-09-15T02:12:26.434Z,15.02
2017-09-15T02:13:06.994Z,14.94
2017-09-15T02:13:47.548Z,15.01
2017-09-15T02:14:28.112Z,15.06
2017-09-15T02:15:08.661Z,15.13
2017-09-15T02:15:49.225Z,15.02
2017-09-15T02:16:29.777Z,15.02
2017-09-15T02:17:10.326Z,14.92
2017-09-15T02:17:50.889Z,14.86
2017-09-15T02:18:31.427Z,14.89
2017-09-15T02:19:11.977Z,14.83
2017-09-15T02:19:52.530Z,14.91
2017-09-15T02:20:33.083Z,14.92
2017-09-15T02:21:13.628Z,14.89
2017-09-15T02:21:54.199Z,14.91
2017-09-15T02:22:34.783Z,14.91
2017-09-15T02:23:15.374Z,14.88
2017-09-15T02:23:55.915Z,14.91
2017-09-15T02:24:36.478Z,14.92
2017-09-15T02:25:17.038Z,15.01
2017-09-15T02:25:57.598Z,14.92
2017-09-15T02:26:38.157Z,14.92
2017-09-15T02:27:18.725Z,14.94
2017-09-15T02:27:59.279Z,15.02
2017-09-15T02:28:39.845Z,14.86
2017-09-15T02:29:20.399Z,15.01
2017-09-15T02:30:00.973Z,15.06
2017-09-15T02:30:41.543Z,14.99
2017-09-15T02:31:22.102Z,14.99
2017-09-15T02:32:02.658Z,15.03
2017-09-15T02:32:43.211Z,15.06
2017-09-15T02:33:23.793Z,15.07
2017-09-15T02:34:04.354Z,15.02
2017-09-15T02:34:44.919Z,15.06
2017-09-15T02:35:25.477Z,14.99
2017-09-15T02:36:06.042Z,15.02
2017-09-15T02:36:46.608Z,15.03
2017-09-15T02:37:27.160Z,14.94
2017-09-15T02:38:07.734Z,15.01
2017-09-15T02:38:48.299Z,14.99
2017-09-15T02:39:28.860Z,15.06
2017-09-15T02:40:09.418Z,14.96
2017-09-15T02:40:49.972Z,15.03
2017-09-15T02:41:30.531Z,15.09
2017-09-15T02:42:11.103Z,14.92
2017-09-15T02:42:51.650Z,14.89
2017-09-15T02:43:32.221Z,15.01
2017-09-15T02:44:12.786Z,15.01
2017-09-15T02:44:53.348Z,15.07
2017-09-15T02:45:33.913Z,14.96
2017-09-15T02:46:14.464Z,15.01
2017-09-15T02:46:55.028Z,14.99
2017-09-15T02:47:35.593Z,15.01
2017-09-15T02:48:16.162Z,15.01
2017-09-15T02:48:56.730Z,15.03
2017-09-15T02:49:37.310Z,15.06
2017-09-15T02:50:17.868Z,14.96
2017-09-15T02:50:58.432Z,14.89
2017-09-15T02:51:38.987Z,14.94
2017-09-15T02:52:19.566Z,14.91
2017-09-15T02:53:00.120Z,14.89
2017-09-15T02:53:40.690Z,14.86
2017-09-15T02:54:21.254Z,14.88
2017-09-15T02:55:01.821Z,14.92
2017-09-15T02:55:42.381Z,14.89
2017-09-15T02:56:22.941Z,14.88
2017-09-15T02:57:03.496Z,14.99
2017-09-15T02:57:44.061Z,15.03
2017-09-15T02:58:24.614Z,14.92
2017-09-15T02:59:05.168Z,15.03
2017-09-15T02:59:45.735Z,14.88
2017-09-15T03:00:26.295Z,14.96
2017-09-15T03:01:06.860Z,15.02
2017-09-15T03:01:47.439Z,15.02
2017-09-15T03:02:27.993Z,14.99
2017-09-15T03:03:08.543Z,14.99
2017-09-15T03:03:49.105Z,14.88
2017-09-15T03:04:29.675Z,15.03
2017-09-15T03:05:10.241Z,15.03
2017-09-15T03:05:50.805Z,15.01
2017-09-15T03:06:31.384Z,15.06
2017-09-15T03:07:11.930Z,14.94
2017-09-15T03:07:52.494Z,15.02
2017-09-15T03:08:33.053Z,15.03
2017-09-15T03:09:13.634Z,15.06
2017-09-15T03:09:54.196Z,15.06
2017-09-15T03:10:34.758Z,15.07
2017-09-15T03:11:15.323Z,15.06
2017-09-15T03:11:56.609Z,15.02
2017-09-15T03:12:36.447Z,15.13
2017-09-15T03:13:17.013Z,15.21
2017-09-15T03:13:57.586Z,15.23
2017-09-15T03:14:38.152Z,15.27
2017-09-15T03:15:18.713Z,15.16
2017-09-15T03:15:59.292Z,15.21
2017-09-15T03:16:39.861Z,15.29
2017-09-15T03:17:20.429Z,15.25
2017-09-15T03:18:00.995Z,15.34
2017-09-15T03:18:41.540Z,15.29
2017-09-15T03:19:22.115Z,15.36
2017-09-15T03:20:02.680Z,15.38
2017-09-15T03:20:43.250Z,15.35
2017-09-15T03:21:23.816Z,15.43
2017-09-15T03:22:04.387Z,15.41
2017-09-15T03:22:44.948Z,15.41
2017-09-15T03:23:25.519Z,15.39
2017-09-15T03:24:06.090Z,15.39
2017-09-15T03:24:46.645Z,15.43
2017-09-15T03:25:27.232Z,15.36
2017-09-15T03:26:07.798Z,15.39
2017-09-15T03:26:48.366Z,15.41
2017-09-15T03:27:28.932Z,15.41
2017-09-15T03:28:09.490Z,15.39
2017-09-15T03:28:50.061Z,15.36
2017-09-15T03:29:30.621Z,15.44
2017-09-15T03:30:11.176Z,15.41
2017-09-15T03:30:51.729Z,15.43
2017-09-15T03:31:32.276Z,15.51
2017-09-15T03:32:12.838Z,15.49
2017-09-15T03:32:53.401Z,15.47
2017-09-15T03:33:33.963Z,15.49
2017-09-15T03:34:14.529Z,15.49
2017-09-15T03:34:55.096Z,15.47
2017-09-15T03:35:35.661Z,15.56
2017-09-15T03:36:16.224Z,15.47
2017-09-15T03:36:56.785Z,15.5
2017-09-15T03:37:37.338Z,15.47
2017-09-15T03:38:17.901Z,15.49
2017-09-15T03:38:58.463Z,15.47
2017-09-15T03:39:39.044Z,15.47
2017-09-15T03:40:19.609Z,15.49
2017-09-15T03:41:00.169Z,15.43
2017-09-15T03:41:40.721Z,15.5
2017-09-15T03:42:21.290Z,15.46
2017-09-15T03:43:01.850Z,15.57
2017-09-15T03:43:42.409Z,15.53
2017-09-15T03:44:22.985Z,15.54
2017-09-15T03:45:03.550Z,15.57
2017-09-15T03:45:44.114Z,15.51
2017-09-15T03:46:24.677Z,15.54
2017-09-15T03:47:05.249Z,15.56
2017-09-15T03:47:45.807Z,15.71
2017-09-15T03:48:26.358Z,15.56
2017-09-15T03:49:06.921Z,15.56
2017-09-15T03:49:47.488Z,15.6
2017-09-15T03:50:28.058Z,15.64
2017-09-15T03:51:08.618Z,15.62
2017-09-15T03:51:49.185Z,15.67
2017-09-15T03:52:29.762Z,15.69
2017-09-15T03:53:10.316Z,15.69
2017-09-15T03:53:50.889Z,15.64
2017-09-15T03:54:31.451Z,15.67
2017-09-15T03:55:12.017Z,15.74
2017-09-15T03:55:52.577Z,15.69
2017-09-15T03:56:33.142Z,15.62
2017-09-15T03:57:13.709Z,15.69
2017-09-15T03:57:54.278Z,15.65
2017-09-15T03:58:34.830Z,15.68
2017-09-15T03:59:15.376Z,15.62
2017-09-15T03:59:55.948Z,15.65
2017-09-15T04:00:36.512Z,15.64
2017-09-15T04:01:17.079Z,15.69
2017-09-15T04:01:57.641Z,15.72
2017-09-15T04:02:38.199Z,15.68
2017-09-15T04:03:18.753Z,15.78
2017-09-15T04:03:59.334Z,15.75
2017-09-15T04:04:39.898Z,15.76
2017-09-15T04:05:20.465Z,15.78
2017-09-15T04:06:01.062Z,15.69
2017-09-15T04:06:41.621Z,15.74
2017-09-15T04:07:22.178Z,15.71
2017-09-15T04:08:02.745Z,15.71
2017-09-15T04:08:43.290Z,15.65
2017-09-15T04:09:23.855Z,15.71
2017-09-15T04:10:04.437Z,15.72
2017-09-15T04:10:45.009Z,15.69
2017-09-15T04:11:25.573Z,15.71
2017-09-15T04:12:06.136Z,15.62
2017-09-15T04:12:46.690Z,15.53
2017-09-15T04:13:27.250Z,15.57
2017-09-15T04:14:07.812Z,15.68
2017-09-15T04:14:48.383Z,15.62
2017-09-15T04:15:28.977Z,15.69
2017-09-15T04:16:09.532Z,15.59
2017-09-15T04:16:50.121Z,15.62
2017-09-15T04:17:30.683Z,15.64
2017-09-15T04:18:11.273Z,15.6
2017-09-15T04:18:51.845Z,15.69
2017-09-15T04:19:32.406Z,15.56
2017-09-15T04:20:12.982Z,15.67
2017-09-15T04:20:53.540Z,15.69
2017-09-15T04:21:34.103Z,15.69
2017-09-15T04:22:14.665Z,15.69
2017-09-15T04:22:55.231Z,15.68
2017-09-15T04:23:35.802Z,15.59
2017-09-15T04:24:16.379Z,15.71
2017-09-15T04:24:56.945Z,15.59
2017-09-15T04:25:37.518Z,15.6
2017-09-15T04:26:18.094Z,15.5
2017-09-15T04:26:58.645Z,15.59
2017-09-15T04:27:39.207Z,15.6
2017-09-15T04:28:19.753Z,15.69
2017-09-15T04:29:00.324Z,15.54
2017-09-15T04:29:40.875Z,15.59
2017-09-15T04:30:21.459Z,15.59
2017-09-15T04:31:02.009Z,15.71
2017-09-15T04:31:42.579Z,15.57
2017-09-15T04:32:23.141Z,15.64
2017-09-15T04:33:03.702Z,15.6
2017-09-15T04:33:44.277Z,15.65
2017-09-15T04:34:24.844Z,15.68
2017-09-15T04:35:05.413Z,15.65
2017-09-15T04:35:45.985Z,15.56
2017-09-15T04:36:26.536Z,15.69
2017-09-15T04:37:07.090Z,15.65
2017-09-15T04:37:47.656Z,15.67
2017-09-15T04:38:28.224Z,15.64
2017-09-15T04:39:08.801Z,15.65
2017-09-15T04:39:49.378Z,15.62
2017-09-15T04:40:29.957Z,15.74
2017-09-15T04:41:10.517Z,15.71
2017-09-15T04:41:51.066Z,15.74
2017-09-15T04:42:31.632Z,15.72
2017-09-15T04:43:12.195Z,15.67
2017-09-15T04:43:52.770Z,15.75
2017-09-15T04:44:33.341Z,15.69
2017-09-15T04:45:13.902Z,15.75
2017-09-15T04:45:54.466Z,15.71
2017-09-15T04:46:35.034Z,15.75
2017-09-15T04:47:15.595Z,15.74
2017-09-15T04:47:56.158Z,15.76
2017-09-15T04:48:36.717Z,15.72
2017-09-15T04:49:17.279Z,15.72
2017-09-15T04:49:57.846Z,15.74
2017-09-15T04:50:38.416Z,15.72
2017-09-15T04:51:18.981Z,15.75
2017-09-15T04:51:59.536Z,15.64
2017-09-15T04:52:40.089Z,15.64
2017-09-15T04:53:20.653Z,15.68
2017-09-15T04:54:01.218Z,15.68
2017-09-15T04:54:41.793Z,15.64
2017-09-15T04:55:22.340Z,15.74
2017-09-15T04:56:02.919Z,15.69
2017-09-15T04:56:43.483Z,15.62
2017-09-15T04:57:24.046Z,15.62
2017-09-15T04:58:04.613Z,15.67
2017-09-15T04:58:45.176Z,15.69
2017-09-15T04:59:25.748Z,15.62
2017-09-15T05:00:06.317Z,15.67
2017-09-15T05:00:47.646Z,15.68
2017-09-15T05:01:27.446Z,15.69
2017-09-15T05:02:08.014Z,15.56
2017-09-15T05:02:48.589Z,15.71
2017-09-15T05:03:29.158Z,15.62
2017-09-15T05:04:09.725Z,15.57
2017-09-15T05:04:50.286Z,15.6
2017-09-15T05:05:30.852Z,15.56
2017-09-15T05:06:11.421Z,15.57
2017-09-15T05:06:51.987Z,15.57
2017-09-15T05:07:32.552Z,15.49
2017-09-15T05:08:13.115Z,15.44
2017-09-15T05:08:53.681Z,15.51
2017-09-15T05:09:34.246Z,15.51
2017-09-15T05:10:14.816Z,15.5
2017-09-15T05:10:55.389Z,15.38
2017-09-15T05:11:35.955Z,15.41
2017-09-15T05:12:16.519Z,15.36
2017-09-15T05:12:57.077Z,15.39
2017-09-15T05:13:37.647Z,15.47
2017-09-15T05:14:18.206Z,15.5
2017-09-15T05:14:58.774Z,15.5
2017-09-15T05:15:39.340Z,15.47
2017-09-15T05:16:19.891Z,15.49
2017-09-15T05:17:00.461Z,15.53
2017-09-15T05:17:41.040Z,15.46
2017-09-15T05:18:21.592Z,15.49
2017-09-15T05:19:02.159Z,15.59
2017-09-15T05:19:42.751Z,15.59
2017-09-15T05:20:23.304Z,15.53
2017-09-15T05:21:03.861Z,15.57
2017-09-15T05:21:44.427Z,15.59
2017-09-15T05:22:24.997Z,15.54
2017-09-15T05:23:05.556Z,15.69
2017-09-15T05:23:46.115Z,15.68
2017-09-15T05:24:26.676Z,15.74
2017-09-15T05:25:07.252Z,15.65
2017-09-15T05:25:47.826Z,15.74
2017-09-15T05:26:28.388Z,15.75
2017-09-15T05:27:08.951Z,15.74
2017-09-15T05:27:49.513Z,15.86
2017-09-15T05:28:30.076Z,15.76
2017-09-15T05:29:10.632Z,15.78
2017-09-15T05:29:51.188Z,15.87
2017-09-15T05:30:31.741Z,15.96
2017-09-15T05:31:12.312Z,15.92
2017-09-15T05:31:52.879Z,15.97
2017-09-15T05:32:33.442Z,16
2017-09-15T05:33:14.011Z,15.96
2017-09-15T05:33:54.576Z,16.04
2017-09-15T05:34:35.136Z,15.94
2017-09-15T05:35:15.684Z,16.02
2017-09-15T05:35:56.255Z,16.11
2017-09-15T05:36:36.817Z,16.02
2017-09-15T05:37:17.383Z,16.04
2017-09-15T05:37:57.950Z,16.08
2017-09-15T05:38:38.512Z,16.07
2017-09-15T05:39:19.084Z,16.09
2017-09-15T05:39:59.662Z,16.07
2017-09-15T05:40:40.215Z,16.05
2017-09-15T05:41:20.764Z,16.09
2017-09-15T05:42:01.413Z,16.15
2017-09-15T05:42:41.959Z,16.05
2017-09-15T05:43:22.534Z,16.17
2017-09-15T05:44:03.108Z,16.2
2017-09-15T05:44:43.646Z,16.24
2017-09-15T05:45:24.207Z,16.15
2017-09-15T05:46:04.786Z,16.25
2017-09-15T05:46:45.381Z,16.24
2017-09-15T05:47:25.920Z,16.25
2017-09-15T05:48:06.469Z,16.28
2017-09-15T05:48:47.039Z,16.24
2017-09-15T05:49:27.627Z,16.15
2017-09-15T05:50:08.214Z,16.11
2017-09-15T05:50:48.690Z,16.24
2017-09-15T05:51:29.206Z,16.14
2017-09-15T05:52:09.770Z,16.11
2017-09-15T05:52:50.335Z,16.28
2017-09-15T05:53:30.916Z,16.28
2017-09-15T05:54:11.480Z,16.28
2017-09-15T05:54:52.036Z,16.25
2017-09-15T05:55:32.569Z,16.23
2017-09-15T05:56:13.166Z,16.3
2017-09-15T05:56:53.718Z,16.35
2017-09-15T05:57:34.273Z,16.35
2017-09-15T05:58:14.842Z,16.41
2017-09-15T05:58:55.419Z,16.45
2017-09-15T05:59:35.967Z,16.39
2017-09-15T06:00:16.564Z,16.45
2017-09-15T06:00:57.132Z,16.42
2017-09-15T06:01:37.679Z,16.5
2017-09-15T06:02:18.248Z,16.45
2017-09-15T06:02:58.816Z,16.52
2017-09-15T06:03:39.377Z,16.53
2017-09-15T06:04:20.027Z,16.49
2017-09-15T06:05:00.593Z,16.43
2017-09-15T06:05:41.164Z,16.46
2017-09-15T06:06:21.984Z,16.53
2017-09-15T06:07:02.527Z,16.48
2017-09-15T06:07:43.100Z,16.52
2017-09-15T06:08:23.662Z,16.58
2017-09-15T06:09:04.228Z,16.49
2017-09-15T06:09:44.788Z,16.53
2017-09-15T06:10:25.425Z,16.49
2017-09-15T06:11:05.866Z,16.41
2017-09-15T06:11:46.410Z,16.5
2017-09-15T06:12:26.971Z,16.58
2017-09-15T06:13:07.528Z,16.46
2017-09-15T06:13:48.102Z,16.41
2017-09-15T06:14:28.659Z,16.46
2017-09-15T06:15:09.241Z,16.46
2017-09-15T06:15:49.806Z,16.46
2017-09-15T06:16:30.377Z,16.41
2017-09-15T06:17:10.936Z,16.61
2017-09-15T06:17:51.511Z,16.81
2017-09-15T06:18:32.084Z,16.78
2017-09-15T06:19:12.641Z,16.79
2017-09-15T06:19:53.151Z,16.89
2017-09-15T06:20:33.732Z,16.88
2017-09-15T06:21:14.304Z,16.94
2017-09-15T06:21:54.934Z,17.04
2017-09-15T06:22:36.341Z,17.11
2017-09-15T06:23:16.885Z,17.12
2017-09-15T06:23:57.481Z,17.21
2017-09-15T06:24:38.030Z,17.33
2017-09-15T06:25:18.559Z,17.22
2017-09-15T06:25:59.189Z,17.23
2017-09-15T06:26:39.732Z,17.21
2017-09-15T06:27:20.292Z,17.48
2017-09-15T06:28:00.807Z,17.43
2017-09-15T06:28:41.354Z,17.44
2017-09-15T06:29:21.901Z,17.44
2017-09-15T06:30:02.446Z,17.46
2017-09-15T06:30:43.005Z,17.59
2017-09-15T06:31:23.567Z,17.52
2017-09-15T06:32:04.109Z,17.59
2017-09-15T06:32:44.681Z,17.75
2017-09-15T06:33:25.248Z,17.74
2017-09-15T06:34:05.944Z,17.78
2017-09-15T06:34:46.517Z,17.9
2017-09-15T06:35:27.079Z,17.92
2017-09-15T06:36:07.650Z,18.08
2017-09-15T06:36:48.205Z,18.26
2017-09-15T06:37:28.779Z,18.25
2017-09-15T06:38:09.327Z,18.3
2017-09-15T06:38:49.901Z,18.42
2017-09-15T06:39:30.467Z,18.44
2017-09-15T06:40:11.027Z,18.52
2017-09-15T06:40:51.612Z,18.51
2017-09-15T06:41:32.186Z,18.54
2017-09-15T06:42:12.741Z,18.48
2017-09-15T06:42:53.316Z,18.52
2017-09-15T06:43:33.858Z,18.48
2017-09-15T06:44:14.403Z,18.44
2017-09-15T06:44:55.005Z,18.47
2017-09-15T06:45:35.576Z,18.36
2017-09-15T06:46:16.131Z,18.41
2017-09-15T06:46:56.753Z,18.45
2017-09-15T06:47:37.309Z,18.51
2017-09-15T06:48:17.847Z,18.5
2017-09-15T06:48:58.407Z,18.44
2017-09-15T06:49:38.955Z,18.57
2017-09-15T06:50:19.504Z,18.52
2017-09-15T06:51:00.065Z,18.58
2017-09-15T06:51:40.634Z,18.6
2017-09-15T06:52:21.190Z,18.58
2017-09-15T06:53:01.739Z,18.45
2017-09-15T06:53:42.318Z,18.54
2017-09-15T06:54:22.874Z,18.66
2017-09-15T06:55:03.425Z,18.76
2017-09-15T06:55:43.980Z,18.73
2017-09-15T06:56:24.541Z,18.84
2017-09-15T06:57:05.104Z,18.82
2017-09-15T06:57:45.665Z,18.73
2017-09-15T06:58:26.201Z,18.7
2017-09-15T06:59:06.761Z,18.88
2017-09-15T06:59:47.356Z,19.08
2017-09-15T07:00:27.912Z,19.14
2017-09-15T07:01:08.535Z,19.25
2017-09-15T07:01:49.027Z,19.28
2017-09-15T07:02:29.580Z,19.32
2017-09-15T07:03:10.156Z,19.29
2017-09-15T07:03:50.705Z,19.32
2017-09-15T07:04:31.279Z,19.31
2017-09-15T07:05:11.835Z,19.19
2017-09-15T07:05:52.385Z,19.16
2017-09-15T07:06:32.942Z,19.22
2017-09-15T07:07:13.498Z,19.1
2017-09-15T07:07:54.057Z,19.11
2017-09-15T07:08:34.590Z,19.16
2017-09-15T07:09:15.141Z,19.13
2017-09-15T07:09:55.705Z,19.14
2017-09-15T07:10:36.323Z,19.16
2017-09-15T07:11:16.925Z,19.25
2017-09-15T07:11:57.505Z,19.41
2017-09-15T07:12:38.027Z,19.58
2017-09-15T07:13:18.546Z,19.65
2017-09-15T07:13:59.109Z,19.74
2017-09-15T07:14:39.675Z,19.65
2017-09-15T07:15:20.246Z,19.74
2017-09-15T07:16:00.827Z,19.59
2017-09-15T07:16:41.545Z,19.39
2017-09-15T07:17:22.259Z,19.44
2017-09-15T07:18:02.813Z,19.61
2017-09-15T07:18:43.387Z,19.71
2017-09-15T07:19:23.892Z,19.81
2017-09-15T07:20:04.463Z,19.81
2017-09-15T07:20:45.023Z,19.65
2017-09-15T07:21:25.560Z,19.66
2017-09-15T07:22:06.142Z,19.66
2017-09-15T07:22:46.730Z,19.69
2017-09-15T07:23:27.276Z,19.76
2017-09-15T07:24:07.874Z,19.74
2017-09-15T07:24:48.401Z,19.87
2017-09-15T07:25:28.944Z,19.76
2017-09-15T07:26:09.510Z,19.91
2017-09-15T07:26:50.083Z,19.98
2017-09-15T07:27:30.649Z,19.96
2017-09-15T07:28:11.213Z,19.94
2017-09-15T07:28:51.783Z,19.92
2017-09-15T07:29:32.343Z,19.69
2017-09-15T07:30:12.913Z,19.77
2017-09-15T07:30:53.479Z,19.84
2017-09-15T07:31:34.042Z,19.92
2017-09-15T07:32:14.624Z,19.76
2017-09-15T07:32:55.188Z,19.87
2017-09-15T07:33:35.756Z,19.92
2017-09-15T07:34:16.319Z,19.81
2017-09-15T07:34:56.896Z,19.87
2017-09-15T07:35:37.442Z,19.87
2017-09-15T07:36:18.009Z,19.94
2017-09-15T07:36:58.591Z,19.94
2017-09-15T07:37:39.153Z,20.1
2017-09-15T07:38:19.723Z,20.05
2017-09-15T07:39:00.280Z,20.14
2017-09-15T07:39:40.833Z,20.13
2017-09-15T07:40:21.388Z,20.31
2017-09-15T07:41:01.987Z,20.31
2017-09-15T07:41:42.563Z,20.24
2017-09-15T07:42:23.114Z,19.96
2017-09-15T07:43:03.665Z,20.03
2017-09-15T07:43:44.216Z,20.03
2017-09-15T07:44:24.785Z,20.08
2017-09-15T07:45:05.366Z,19.91
2017-09-15T07:45:45.940Z,19.86
2017-09-15T07:46:26.501Z,19.76
2017-09-15T07:47:07.060Z,19.58
2017-09-15T07:47:47.635Z,19.65
2017-09-15T07:48:28.205Z,19.56
2017-09-15T07:49:08.746Z,19.41
2017-09-15T07:49:49.317Z,19.71
2017-09-15T07:50:29.882Z,19.73
2017-09-15T07:51:10.473Z,19.84
2017-09-15T07:51:51.013Z,19.76
2017-09-15T07:52:31.594Z,19.92
2017-09-15T07:53:12.149Z,19.95
2017-09-15T07:53:52.711Z,19.84
2017-09-15T07:54:33.282Z,19.76
2017-09-15T07:55:13.837Z,19.73
2017-09-15T07:55:54.415Z,19.84
2017-09-15T07:56:34.976Z,19.98
2017-09-15T07:57:15.528Z,20.13
2017-09-15T07:57:56.095Z,20.16
2017-09-15T07:58:36.630Z,20.2
2017-09-15T07:59:17.188Z,20.28
2017-09-15T07:59:57.755Z,20.33
2017-09-15T08:00:38.298Z,20.39
2017-09-15T08:01:18.892Z,20.35
2017-09-15T08:01:59.447Z,20.51
2017-09-15T08:02:40.021Z,20.47
2017-09-15T08:03:20.592Z,20.38
2017-09-15T08:04:01.164Z,20.51
2017-09-15T08:04:41.726Z,20.33
2017-09-15T08:05:22.302Z,20.41
2017-09-15T08:06:02.862Z,20.42
2017-09-15T08:06:43.448Z,20.36
2017-09-15T08:07:24.024Z,20.33
2017-09-15T08:08:04.557Z,20.26
2017-09-15T08:08:45.108Z,20.17
2017-09-15T08:09:25.683Z,20.28
2017-09-15T08:10:06.234Z,20.32
2017-09-15T08:10:46.810Z,20.35
2017-09-15T08:11:27.377Z,20.24
2017-09-15T08:12:07.933Z,20.2
2017-09-15T08:12:48.504Z,20.13
2017-09-15T08:13:29.072Z,20.18
2017-09-15T08:14:09.666Z,20.18
2017-09-15T08:14:50.222Z,20.2
2017-09-15T08:15:30.785Z,20.13
2017-09-15T08:16:11.345Z,20.18
2017-09-15T08:16:51.916Z,20.32
2017-09-15T08:17:32.475Z,20.38
2017-09-15T08:18:13.124Z,20.43
2017-09-15T08:18:53.692Z,20.39
2017-09-15T08:19:34.291Z,20.42
2017-09-15T08:20:14.868Z,20.47
2017-09-15T08:20:55.427Z,20.42
2017-09-15T08:21:35.997Z,20.51
2017-09-15T08:22:16.593Z,20.5
2017-09-15T08:22:57.164Z,20.39
2017-09-15T08:23:37.715Z,20.42
2017-09-15T08:24:18.253Z,20.42
2017-09-15T08:24:58.827Z,20.43
2017-09-15T08:25:39.395Z,20.48
2017-09-15T08:26:19.961Z,20.43
2017-09-15T08:27:00.529Z,20.5
2017-09-15T08:27:41.734Z,20.51
2017-09-15T08:28:21.668Z,20.47
2017-09-15T08:29:02.242Z,20.55
2017-09-15T08:29:42.803Z,20.47
2017-09-15T08:30:23.373Z,20.48
2017-09-15T08:31:03.937Z,20.48
2017-09-15T08:31:44.523Z,20.39
2017-09-15T08:32:25.101Z,20.41
2017-09-15T08:33:05.674Z,20.39
2017-09-15T08:33:46.243Z,20.26
2017-09-15T08:34:26.811Z,20.23
2017-09-15T08:35:07.392Z,20.16
2017-09-15T08:35:47.947Z,20.31
2017-09-15T08:36:28.515Z,20.36
2017-09-15T08:37:09.081Z,20.36
2017-09-15T08:37:49.638Z,20.42
2017-09-15T08:38:30.209Z,20.47
2017-09-15T08:39:10.772Z,20.42
2017-09-15T08:39:51.344Z,20.41
2017-09-15T08:40:31.902Z,20.55
2017-09-15T08:41:12.470Z,20.57
2017-09-15T08:41:53.040Z,20.55
2017-09-15T08:42:33.596Z,20.58
2017-09-15T08:43:14.155Z,20.69